sensor_id;sensor_type;location;lat;lon;timestamp;temperature;humidity
25170;DHT22;13129;48.012;10.352;2022-11-27T04:30:57;-3.70;99.90
25170;DHT22;13129;48.012;10.352;2022-11-27T04:33:23;-3.60;99.90
25170;DHT22;13129;48.012;10.352;2022-11-27T04:35:52;-3.60;99.90
25170;DHT22;13129;48.012;10.352;2022-11-27T04:38:19;-3.50;99.90
25170;DHT22;13129;48.012;10.352;2022-11-27T04:40:45;-3.40;99.90
25170;DHT22;13129;48.012;10.352;2022-11-27T04:43:11;-3.50;99.90
25170;DHT22;13129;48.012;10.352;2022-11-27T04:45:37;-3.50;99.90
25170;DHT22;13129;48.012;10.352;2022-11-27T04:48:03;-3.40;99.90
25170;DHT22;13129;48.012;10.352;2022-11-27T04:50:29;-3.50;99.90
25170;DHT22;13129;48.012;10.352;2022-11-27T04:52:55;-3.50;99.90
25170;DHT22;13129;48.012;10.352;2022-11-27T04:55:21;-3.60;99.90
25170;DHT22;13129;48.012;10.352;2022-11-27T04:57:47;-3.60;99.90
25170;DHT22;13129;48.012;10.352;2022-11-27T05:00:13;-3.70;99.90
25170;DHT22;13129;48.012;10.352;2022-11-27T05:02:39;-3.70;99.90
25170;DHT22;13129;48.012;10.352;2022-11-27T05:05:05;-3.70;99.90
25170;DHT22;13129;48.012;10.352;2022-11-27T05:07:31;-3.70;99.90
25170;DHT22;13129;48.012;10.352;2022-11-27T05:09:56;-3.70;99.90
25170;DHT22;13129;48.012;10.352;2022-11-27T05:12:22;-3.80;99.90
25170;DHT22;13129;48.012;10.352;2022-11-27T05:14:48;-3.90;99.90
25170;DHT22;13129;48.012;10.352;2022-11-27T05:17:14;-3.90;99.90
25170;DHT22;13129;48.012;10.352;2022-11-27T05:19:39;-3.90;99.90
25170;DHT22;13129;48.012;10.352;2022-11-27T05:22:05;-4.00;99.90
25170;DHT22;13129;48.012;10.352;2022-11-27T05:24:31;-4.10;99.90
25170;DHT22;13129;48.012;10.352;2022-11-27T05:26:56;-4.20;99.90
25170;DHT22;13129;48.012;10.352;2022-11-27T05:29:23;-4.20;99.90
25170;DHT22;13129;48.012;10.352;2022-11-27T05:31:50;-4.30;99.90
25170;DHT22;13129;48.012;10.352;2022-11-27T05:34:15;-4.20;99.90
25170;DHT22;13129;48.012;10.352;2022-11-27T05:36:41;-4.20;99.90
25170;DHT22;13129;48.012;10.352;2022-11-27T05:39:07;-4.10;99.90
25170;DHT22;13129;48.012;10.352;2022-11-27T05:41:34;-4.10;99.90
25170;DHT22;13129;48.012;10.352;2022-11-27T05:44:01;-4.20;99.90
25170;DHT22;13129;48.012;10.352;2022-11-27T05:46:27;-4.10;99.90
25170;DHT22;13129;48.012;10.352;2022-11-27T05:48:53;-4.00;99.90
25170;DHT22;13129;48.012;10.352;2022-11-27T05:51:18;-4.00;99.90
25170;DHT22;13129;48.012;10.352;2022-11-27T05:53:44;-4.00;99.90
25170;DHT22;13129;48.012;10.352;2022-11-27T05:56:12;-3.90;99.90
25170;DHT22;13129;48.012;10.352;2022-11-27T05:58:39;-3.90;99.90
25170;DHT22;13129;48.012;10.352;2022-11-27T06:01:06;-3.60;99.90
25170;DHT22;13129;48.012;10.352;2022-11-27T06:03:32;-3.70;99.90
25170;DHT22;13129;48.012;10.352;2022-11-27T06:05:57;-3.60;99.90
25170;DHT22;13129;48.012;10.352;2022-11-27T06:08:23;-3.60;99.90
25170;DHT22;13129;48.012;10.352;2022-11-27T06:10:49;-3.60;99.90
25170;DHT22;13129;48.012;10.352;2022-11-27T06:13:15;-3.50;99.90
25170;DHT22;13129;48.012;10.352;2022-11-27T06:15:41;-3.40;99.90
25170;DHT22;13129;48.012;10.352;2022-11-27T06:18:08;-3.40;99.90
25170;DHT22;13129;48.012;10.352;2022-11-27T06:20:34;-3.50;99.90
25170;DHT22;13129;48.012;10.352;2022-11-27T06:23:00;-3.50;99.90
25170;DHT22;13129;48.012;10.352;2022-11-27T06:25:25;-3.50;99.90
25170;DHT22;13129;48.012;10.352;2022-11-27T06:27:51;-3.50;99.90
25170;DHT22;13129;48.012;10.352;2022-11-27T06:30:17;-3.50;99.90
25170;DHT22;13129;48.012;10.352;2022-11-27T06:32:43;-3.30;99.90
25170;DHT22;13129;48.012;10.352;2022-11-27T06:35:09;-3.20;99.90
25170;DHT22;13129;48.012;10.352;2022-11-27T06:37:35;-3.20;99.90
25170;DHT22;13129;48.012;10.352;2022-11-27T06:40:01;-3.40;99.90
25170;DHT22;13129;48.012;10.352;2022-11-27T06:42:30;-3.40;99.90
25170;DHT22;13129;48.012;10.352;2022-11-27T06:44:56;-3.40;99.90
25170;DHT22;13129;48.012;10.352;2022-11-27T06:47:22;-3.30;99.90
25170;DHT22;13129;48.012;10.352;2022-11-27T06:49:48;-3.40;99.90
25170;DHT22;13129;48.012;10.352;2022-11-27T06:52:14;-3.40;99.90
25170;DHT22;13129;48.012;10.352;2022-11-27T06:54:40;-3.30;99.90
25170;DHT22;13129;48.012;10.352;2022-11-27T06:57:05;-3.30;99.90
25170;DHT22;13129;48.012;10.352;2022-11-27T06:59:31;-3.30;99.90
25170;DHT22;13129;48.012;10.352;2022-11-27T07:01:56;-3.20;99.90
25170;DHT22;13129;48.012;10.352;2022-11-27T07:04:22;-3.10;99.90
25170;DHT22;13129;48.012;10.352;2022-11-27T07:06:48;-3.00;99.90
25170;DHT22;13129;48.012;10.352;2022-11-27T07:09:14;-2.90;99.90
25170;DHT22;13129;48.012;10.352;2022-11-27T07:11:40;-2.70;99.90
25170;DHT22;13129;48.012;10.352;2022-11-27T07:14:06;-2.60;99.90
25170;DHT22;13129;48.012;10.352;2022-11-27T07:16:34;-2.50;99.90
25170;DHT22;13129;48.012;10.352;2022-11-27T07:19:04;-2.40;99.90
25170;DHT22;13129;48.012;10.352;2022-11-27T07:21:30;-2.30;99.90
25170;DHT22;13129;48.012;10.352;2022-11-27T07:23:56;-2.20;99.90
25170;DHT22;13129;48.012;10.352;2022-11-27T07:26:27;-1.80;99.90
25170;DHT22;13129;48.012;10.352;2022-11-27T07:28:53;-0.70;99.90
25170;DHT22;13129;48.012;10.352;2022-11-27T07:31:21;0.50;99.90
25170;DHT22;13129;48.012;10.352;2022-11-27T07:33:47;1.90;99.90
25170;DHT22;13129;48.012;10.352;2022-11-27T07:36:16;3.30;99.90
25170;DHT22;13129;48.012;10.352;2022-11-27T07:38:43;4.30;99.90
25170;DHT22;13129;48.012;10.352;2022-11-27T07:41:10;4.60;99.90
25170;DHT22;13129;48.012;10.352;2022-11-27T07:43:36;4.30;99.90
25170;DHT22;13129;48.012;10.352;2022-11-27T07:46:07;3.80;99.90
25170;DHT22;13129;48.012;10.352;2022-11-27T07:48:32;3.20;99.90
25170;DHT22;13129;48.012;10.352;2022-11-27T07:50:58;3.30;99.90
25170;DHT22;13129;48.012;10.352;2022-11-27T07:53:24;4.30;99.90
25170;DHT22;13129;48.012;10.352;2022-11-27T07:55:50;5.70;99.90
25170;DHT22;13129;48.012;10.352;2022-11-27T07:58:15;6.90;99.90
25170;DHT22;13129;48.012;10.352;2022-11-27T08:00:41;7.50;99.90
25170;DHT22;13129;48.012;10.352;2022-11-27T08:03:09;7.70;99.90
25170;DHT22;13129;48.012;10.352;2022-11-27T08:05:35;7.80;99.90
25170;DHT22;13129;48.012;10.352;2022-11-27T08:08:02;7.50;99.90
25170;DHT22;13129;48.012;10.352;2022-11-27T08:10:35;7.30;99.90
25170;DHT22;13129;48.012;10.352;2022-11-27T08:13:01;7.80;99.90
25170;DHT22;13129;48.012;10.352;2022-11-27T08:15:27;8.50;99.90
25170;DHT22;13129;48.012;10.352;2022-11-27T08:17:53;8.90;99.90
25170;DHT22;13129;48.012;10.352;2022-11-27T08:20:19;9.20;99.90
25170;DHT22;13129;48.012;10.352;2022-11-27T08:22:45;9.50;99.90
25170;DHT22;13129;48.012;10.352;2022-11-27T08:25:10;9.50;99.90
25170;DHT22;13129;48.012;10.352;2022-11-27T08:27:36;9.20;99.90
25170;DHT22;13129;48.012;10.352;2022-11-27T08:30:03;8.70;99.90
25170;DHT22;13129;48.012;10.352;2022-11-27T08:32:29;8.10;99.90
25170;DHT22;13129;48.012;10.352;2022-11-27T08:34:54;7.80;99.90
25170;DHT22;13129;48.012;10.352;2022-11-27T08:37:20;7.70;99.90
25170;DHT22;13129;48.012;10.352;2022-11-27T08:39:46;7.70;99.90
25170;DHT22;13129;48.012;10.352;2022-11-27T08:42:12;7.70;99.90
25170;DHT22;13129;48.012;10.352;2022-11-27T08:44:38;7.90;99.90
25170;DHT22;13129;48.012;10.352;2022-11-27T08:47:04;8.00;99.90
25170;DHT22;13129;48.012;10.352;2022-11-27T08:49:29;8.10;99.90
25170;DHT22;13129;48.012;10.352;2022-11-27T08:51:55;8.00;99.90
25170;DHT22;13129;48.012;10.352;2022-11-27T08:54:21;8.20;99.90
25170;DHT22;13129;48.012;10.352;2022-11-27T08:56:46;8.30;99.90
25170;DHT22;13129;48.012;10.352;2022-11-27T08:59:12;8.60;99.90
25170;DHT22;13129;48.012;10.352;2022-11-27T09:01:37;8.30;99.90
25170;DHT22;13129;48.012;10.352;2022-11-27T09:04:03;8.10;99.90
25170;DHT22;13129;48.012;10.352;2022-11-27T09:06:30;8.30;99.90
25170;DHT22;13129;48.012;10.352;2022-11-27T09:09:03;8.80;99.90
25170;DHT22;13129;48.012;10.352;2022-11-27T09:11:30;9.10;99.90
25170;DHT22;13129;48.012;10.352;2022-11-27T09:14:00;9.50;99.90
25170;DHT22;13129;48.012;10.352;2022-11-27T09:16:27;10.00;99.90
25170;DHT22;13129;48.012;10.352;2022-11-27T09:18:55;10.10;99.80
25170;DHT22;13129;48.012;10.352;2022-11-27T09:21:22;9.40;99.90
25170;DHT22;13129;48.012;10.352;2022-11-27T09:23:58;9.30;99.90
25170;DHT22;13129;48.012;10.352;2022-11-27T09:26:25;9.00;99.90
25170;DHT22;13129;48.012;10.352;2022-11-27T09:28:55;8.70;99.90
25170;DHT22;13129;48.012;10.352;2022-11-27T09:31:22;9.00;99.90
25170;DHT22;13129;48.012;10.352;2022-11-27T09:33:48;9.10;99.90
25170;DHT22;13129;48.012;10.352;2022-11-27T09:36:20;8.70;99.90
25170;DHT22;13129;48.012;10.352;2022-11-27T09:38:46;8.20;99.90
25170;DHT22;13129;48.012;10.352;2022-11-27T09:43:55;9.10;99.90
25170;DHT22;13129;48.012;10.352;2022-11-27T09:46:40;10.20;99.90
25170;DHT22;13129;48.012;10.352;2022-11-27T09:49:14;11.20;99.70
25170;DHT22;13129;48.012;10.352;2022-11-27T09:54:39;11.70;99.30
25170;DHT22;13129;48.012;10.352;2022-11-27T09:57:14;11.60;97.60
25170;DHT22;13129;48.012;10.352;2022-11-27T09:59:45;10.50;99.30
25170;DHT22;13129;48.012;10.352;2022-11-27T10:02:31;9.80;99.50
25170;DHT22;13129;48.012;10.352;2022-11-27T10:04:57;8.70;99.90
25170;DHT22;13129;48.012;10.352;2022-11-27T10:13:06;7.50;99.90
25170;DHT22;13129;48.012;10.352;2022-11-27T10:15:43;7.60;99.90
25170;DHT22;13129;48.012;10.352;2022-11-27T10:18:34;7.70;99.90
25170;DHT22;13129;48.012;10.352;2022-11-27T10:21:14;7.90;99.90
25170;DHT22;13129;48.012;10.352;2022-11-27T10:24:12;8.00;99.90
25170;DHT22;13129;48.012;10.352;2022-11-27T10:26:47;9.30;99.90
25170;DHT22;13129;48.012;10.352;2022-11-27T10:31:48;13.60;97.70
25170;DHT22;13129;48.012;10.352;2022-11-27T10:36:58;15.90;90.80
25170;DHT22;13129;48.012;10.352;2022-11-27T10:39:39;16.70;85.80
25170;DHT22;13129;48.012;10.352;2022-11-27T10:42:27;17.30;81.70
25170;DHT22;13129;48.012;10.352;2022-11-27T10:45:03;17.80;78.30
25170;DHT22;13129;48.012;10.352;2022-11-27T10:47:30;17.90;76.10
25170;DHT22;13129;48.012;10.352;2022-11-27T10:49:56;18.30;73.80
25170;DHT22;13129;48.012;10.352;2022-11-27T10:52:22;18.70;71.40
25170;DHT22;13129;48.012;10.352;2022-11-27T10:55:00;18.90;69.70
25170;DHT22;13129;48.012;10.352;2022-11-27T11:00:23;18.90;66.70
25170;DHT22;13129;48.012;10.352;2022-11-27T11:03:04;18.20;67.60
25170;DHT22;13129;48.012;10.352;2022-11-27T11:05:31;17.70;68.10
25170;DHT22;13129;48.012;10.352;2022-11-27T11:10:42;17.30;69.70
25170;DHT22;13129;48.012;10.352;2022-11-27T11:13:20;17.30;70.40
25170;DHT22;13129;48.012;10.352;2022-11-27T11:15:52;17.20;67.40
25170;DHT22;13129;48.012;10.352;2022-11-27T11:18:25;16.80;68.80
25170;DHT22;13129;48.012;10.352;2022-11-27T11:21:00;16.50;69.70
25170;DHT22;13129;48.012;10.352;2022-11-27T11:23:30;16.50;68.90
25170;DHT22;13129;48.012;10.352;2022-11-27T11:26:00;16.40;69.30
25170;DHT22;13129;48.012;10.352;2022-11-27T11:28:27;15.80;69.00
25170;DHT22;13129;48.012;10.352;2022-11-27T11:31:04;14.70;71.00
25170;DHT22;13129;48.012;10.352;2022-11-27T11:33:46;13.70;74.20
25170;DHT22;13129;48.012;10.352;2022-11-27T11:36:14;13.40;76.30
25170;DHT22;13129;48.012;10.352;2022-11-27T11:38:43;13.40;76.80
25170;DHT22;13129;48.012;10.352;2022-11-27T11:41:09;13.70;77.40
25170;DHT22;13129;48.012;10.352;2022-11-27T11:43:37;14.10;76.00
25170;DHT22;13129;48.012;10.352;2022-11-27T11:46:18;13.70;73.80
25170;DHT22;13129;48.012;10.352;2022-11-27T11:49:32;12.80;75.90
25170;DHT22;13129;48.012;10.352;2022-11-27T12:00:16;8.30;90.10
25170;DHT22;13129;48.012;10.352;2022-11-27T12:11:43;7.50;92.20
25170;DHT22;13129;48.012;10.352;2022-11-27T12:19:58;7.60;91.90
25170;DHT22;13129;48.012;10.352;2022-11-27T12:30:38;7.00;92.70
25170;DHT22;13129;48.012;10.352;2022-11-27T12:39:49;6.80;94.70
25170;DHT22;13129;48.012;10.352;2022-11-27T12:42:32;6.80;94.60
25170;DHT22;13129;48.012;10.352;2022-11-27T12:45:03;6.70;94.60
25170;DHT22;13129;48.012;10.352;2022-11-27T12:50:27;6.70;95.00
25170;DHT22;13129;48.012;10.352;2022-11-27T12:53:05;6.60;95.30
25170;DHT22;13129;48.012;10.352;2022-11-27T12:55:36;6.70;95.60
25170;DHT22;13129;48.012;10.352;2022-11-27T12:58:07;6.80;95.40
25170;DHT22;13129;48.012;10.352;2022-11-27T13:00:37;6.80;95.30
25170;DHT22;13129;48.012;10.352;2022-11-27T13:03:30;6.80;95.10
25170;DHT22;13129;48.012;10.352;2022-11-27T13:06:12;6.70;94.90
25170;DHT22;13129;48.012;10.352;2022-11-27T13:09:06;6.80;95.00
25170;DHT22;13129;48.012;10.352;2022-11-27T13:11:37;6.70;95.00
25170;DHT22;13129;48.012;10.352;2022-11-27T13:14:23;6.70;95.10
25170;DHT22;13129;48.012;10.352;2022-11-27T13:17:07;6.60;95.10
25170;DHT22;13129;48.012;10.352;2022-11-27T13:19:43;6.50;95.30
25170;DHT22;13129;48.012;10.352;2022-11-27T13:22:13;6.60;95.40
25170;DHT22;13129;48.012;10.352;2022-11-27T13:24:40;6.70;95.40
25170;DHT22;13129;48.012;10.352;2022-11-27T13:27:16;6.80;95.50
25170;DHT22;13129;48.012;10.352;2022-11-27T13:29:53;6.90;95.30
25170;DHT22;13129;48.012;10.352;2022-11-27T13:32:25;7.10;95.50
25170;DHT22;13129;48.012;10.352;2022-11-27T13:34:52;7.30;95.40
25170;DHT22;13129;48.012;10.352;2022-11-27T13:37:39;7.50;95.30
25170;DHT22;13129;48.012;10.352;2022-11-27T13:40:15;7.60;95.20
25170;DHT22;13129;48.012;10.352;2022-11-27T13:42:44;7.60;95.10
25170;DHT22;13129;48.012;10.352;2022-11-27T13:45:23;7.60;95.10
25170;DHT22;13129;48.012;10.352;2022-11-27T13:47:50;7.60;95.00
25170;DHT22;13129;48.012;10.352;2022-11-27T13:50:19;7.60;95.20
25170;DHT22;13129;48.012;10.352;2022-11-27T13:55:27;7.50;95.40
25170;DHT22;13129;48.012;10.352;2022-11-27T13:57:55;7.50;95.40
25170;DHT22;13129;48.012;10.352;2022-11-27T14:00:42;7.50;95.50
25170;DHT22;13129;48.012;10.352;2022-11-27T14:03:21;7.40;95.60
25170;DHT22;13129;48.012;10.352;2022-11-27T14:05:47;7.30;95.80
25170;DHT22;13129;48.012;10.352;2022-11-27T14:08:21;7.20;96.10
25170;DHT22;13129;48.012;10.352;2022-11-27T14:10:57;7.20;96.30
25170;DHT22;13129;48.012;10.352;2022-11-27T14:13:43;7.10;96.40
25170;DHT22;13129;48.012;10.352;2022-11-27T14:16:33;7.10;96.70
25170;DHT22;13129;48.012;10.352;2022-11-27T14:19:43;7.00;96.80
25170;DHT22;13129;48.012;10.352;2022-11-27T14:21:49;6.90;97.00
25170;DHT22;13129;48.012;10.352;2022-11-27T14:24:35;6.80;97.40
25170;DHT22;13129;48.012;10.352;2022-11-27T14:27:19;6.70;97.70
25170;DHT22;13129;48.012;10.352;2022-11-27T14:29:45;6.70;98.00
25170;DHT22;13129;48.012;10.352;2022-11-27T14:32:13;6.60;98.10
25170;DHT22;13129;48.012;10.352;2022-11-27T14:34:40;6.50;98.30
25170;DHT22;13129;48.012;10.352;2022-11-27T14:37:06;6.40;98.50
25170;DHT22;13129;48.012;10.352;2022-11-27T14:39:34;6.20;99.00
25170;DHT22;13129;48.012;10.352;2022-11-27T14:44:27;6.00;99.90
25170;DHT22;13129;48.012;10.352;2022-11-27T14:46:53;5.90;99.90
25170;DHT22;13129;48.012;10.352;2022-11-27T14:49:22;5.90;99.90
25170;DHT22;13129;48.012;10.352;2022-11-27T14:51:49;5.80;99.90
25170;DHT22;13129;48.012;10.352;2022-11-27T14:54:37;5.70;99.90
25170;DHT22;13129;48.012;10.352;2022-11-27T14:57:04;5.50;99.90
25170;DHT22;13129;48.012;10.352;2022-11-27T14:59:30;5.30;99.90
25170;DHT22;13129;48.012;10.352;2022-11-27T15:01:59;5.20;99.90
25170;DHT22;13129;48.012;10.352;2022-11-27T15:04:28;5.20;99.90
25170;DHT22;13129;48.012;10.352;2022-11-27T15:06:57;5.00;99.90
25170;DHT22;13129;48.012;10.352;2022-11-27T15:09:28;5.00;99.90
25170;DHT22;13129;48.012;10.352;2022-11-27T15:12:16;4.90;99.90
25170;DHT22;13129;48.012;10.352;2022-11-27T15:15:27;4.80;99.90
25170;DHT22;13129;48.012;10.352;2022-11-27T15:17:36;4.60;99.90
25170;DHT22;13129;48.012;10.352;2022-11-27T15:20:13;4.50;99.90
25170;DHT22;13129;48.012;10.352;2022-11-27T15:22:49;4.40;99.90
25170;DHT22;13129;48.012;10.352;2022-11-27T15:25:37;4.30;99.90
25170;DHT22;13129;48.012;10.352;2022-11-27T15:28:24;4.20;99.90
25170;DHT22;13129;48.012;10.352;2022-11-27T15:30:51;4.10;99.90
25170;DHT22;13129;48.012;10.352;2022-11-27T15:33:31;4.10;99.90
25170;DHT22;13129;48.012;10.352;2022-11-27T15:36:14;4.00;99.90
25170;DHT22;13129;48.012;10.352;2022-11-27T15:38:41;4.00;99.90
25170;DHT22;13129;48.012;10.352;2022-11-27T15:41:28;3.90;99.90
25170;DHT22;13129;48.012;10.352;2022-11-27T15:43:55;3.80;99.90
25170;DHT22;13129;48.012;10.352;2022-11-27T15:46:26;3.80;99.90
25170;DHT22;13129;48.012;10.352;2022-11-27T15:48:55;3.60;99.90
25170;DHT22;13129;48.012;10.352;2022-11-27T15:51:21;3.70;99.90
25170;DHT22;13129;48.012;10.352;2022-11-27T15:53:47;3.70;99.90
25170;DHT22;13129;48.012;10.352;2022-11-27T15:56:14;3.60;99.90
25170;DHT22;13129;48.012;10.352;2022-11-27T15:58:41;3.60;99.90
25170;DHT22;13129;48.012;10.352;2022-11-27T16:01:08;3.60;99.90
25170;DHT22;13129;48.012;10.352;2022-11-27T16:03:34;3.60;99.90
25170;DHT22;13129;48.012;10.352;2022-11-27T16:06:07;3.50;99.90
25170;DHT22;13129;48.012;10.352;2022-11-27T16:08:33;3.40;99.90
25170;DHT22;13129;48.012;10.352;2022-11-27T16:11:05;3.20;99.90
25170;DHT22;13129;48.012;10.352;2022-11-27T16:13:31;3.10;99.90
25170;DHT22;13129;48.012;10.352;2022-11-27T16:16:02;3.00;99.90
25170;DHT22;13129;48.012;10.352;2022-11-27T16:18:28;2.90;99.90
25170;DHT22;13129;48.012;10.352;2022-11-27T16:20:54;2.80;99.90
25170;DHT22;13129;48.012;10.352;2022-11-27T16:23:20;2.80;99.90
25170;DHT22;13129;48.012;10.352;2022-11-27T16:25:46;2.80;99.90
25170;DHT22;13129;48.012;10.352;2022-11-27T16:28:11;2.60;99.90
25170;DHT22;13129;48.012;10.352;2022-11-27T16:30:37;2.50;99.90
25170;DHT22;13129;48.012;10.352;2022-11-27T16:33:02;2.50;99.90
25170;DHT22;13129;48.012;10.352;2022-11-27T16:35:28;2.40;99.90
25170;DHT22;13129;48.012;10.352;2022-11-27T16:37:54;2.40;99.90
25170;DHT22;13129;48.012;10.352;2022-11-27T16:40:19;2.40;99.90
25170;DHT22;13129;48.012;10.352;2022-11-27T16:42:45;2.30;99.90
25170;DHT22;13129;48.012;10.352;2022-11-27T16:45:11;2.30;99.90
25170;DHT22;13129;48.012;10.352;2022-11-27T16:47:37;2.30;99.90
25170;DHT22;13129;48.012;10.352;2022-11-27T16:50:03;2.30;99.90
25170;DHT22;13129;48.012;10.352;2022-11-27T16:52:29;2.30;99.90
25170;DHT22;13129;48.012;10.352;2022-11-27T16:54:54;2.30;99.90
25170;DHT22;13129;48.012;10.352;2022-11-27T16:57:20;2.30;99.90
25170;DHT22;13129;48.012;10.352;2022-11-27T16:59:46;2.30;99.90
25170;DHT22;13129;48.012;10.352;2022-11-27T17:02:15;2.30;99.90
25170;DHT22;13129;48.012;10.352;2022-11-27T17:04:40;2.40;99.90
25170;DHT22;13129;48.012;10.352;2022-11-27T17:07:07;2.40;99.90
25170;DHT22;13129;48.012;10.352;2022-11-27T17:09:32;2.50;99.90
25170;DHT22;13129;48.012;10.352;2022-11-27T17:11:58;2.60;99.90
25170;DHT22;13129;48.012;10.352;2022-11-27T17:14:23;2.60;99.90
25170;DHT22;13129;48.012;10.352;2022-11-27T17:16:51;2.60;99.90
25170;DHT22;13129;48.012;10.352;2022-11-27T17:19:17;2.60;99.90
25170;DHT22;13129;48.012;10.352;2022-11-27T17:21:43;2.50;99.90
25170;DHT22;13129;48.012;10.352;2022-11-27T17:24:11;2.50;99.90
25170;DHT22;13129;48.012;10.352;2022-11-27T17:26:37;2.40;99.90
25170;DHT22;13129;48.012;10.352;2022-11-27T17:29:08;2.40;99.90
25170;DHT22;13129;48.012;10.352;2022-11-27T17:31:33;2.40;99.90
25170;DHT22;13129;48.012;10.352;2022-11-27T17:34:04;2.40;99.90
25170;DHT22;13129;48.012;10.352;2022-11-27T17:36:31;2.40;99.90
25170;DHT22;13129;48.012;10.352;2022-11-27T17:39:00;2.50;99.90
25170;DHT22;13129;48.012;10.352;2022-11-27T17:41:27;2.50;99.90
25170;DHT22;13129;48.012;10.352;2022-11-27T17:43:53;2.50;99.90
25170;DHT22;13129;48.012;10.352;2022-11-27T17:46:21;2.50;99.90
25170;DHT22;13129;48.012;10.352;2022-11-27T17:48:48;2.50;99.90
25170;DHT22;13129;48.012;10.352;2022-11-27T17:51:15;2.50;99.90
25170;DHT22;13129;48.012;10.352;2022-11-27T17:53:41;2.50;99.90
25170;DHT22;13129;48.012;10.352;2022-11-27T17:56:09;2.40;99.90
25170;DHT22;13129;48.012;10.352;2022-11-27T17:58:35;2.40;99.90
25170;DHT22;13129;48.012;10.352;2022-11-27T18:01:02;2.40;99.90
25170;DHT22;13129;48.012;10.352;2022-11-27T18:03:28;2.40;99.90
25170;DHT22;13129;48.012;10.352;2022-11-27T18:05:54;2.40;99.90
25170;DHT22;13129;48.012;10.352;2022-11-27T18:08:21;2.40;99.90
25170;DHT22;13129;48.012;10.352;2022-11-27T18:10:47;2.40;99.90
25170;DHT22;13129;48.012;10.352;2022-11-27T18:13:13;2.40;99.90
25170;DHT22;13129;48.012;10.352;2022-11-27T18:15:39;2.30;99.90
25170;DHT22;13129;48.012;10.352;2022-11-27T18:18:06;2.40;99.90
25170;DHT22;13129;48.012;10.352;2022-11-27T18:20:32;2.40;99.90
25170;DHT22;13129;48.012;10.352;2022-11-27T18:22:57;2.40;99.90
25170;DHT22;13129;48.012;10.352;2022-11-27T18:25:23;2.40;99.90
25170;DHT22;13129;48.012;10.352;2022-11-27T18:27:49;2.40;99.90
25170;DHT22;13129;48.012;10.352;2022-11-27T18:30:14;2.50;99.90
25170;DHT22;13129;48.012;10.352;2022-11-27T18:32:40;2.40;99.90
25170;DHT22;13129;48.012;10.352;2022-11-27T18:35:06;2.40;99.90
25170;DHT22;13129;48.012;10.352;2022-11-27T18:37:34;2.30;99.90
25170;DHT22;13129;48.012;10.352;2022-11-27T18:39:59;2.30;99.90
25170;DHT22;13129;48.012;10.352;2022-11-27T18:42:25;2.30;99.90
25170;DHT22;13129;48.012;10.352;2022-11-27T18:44:51;2.20;99.90
25170;DHT22;13129;48.012;10.352;2022-11-27T18:47:17;2.20;99.90
25170;DHT22;13129;48.012;10.352;2022-11-27T18:49:43;2.10;99.90
25170;DHT22;13129;48.012;10.352;2022-11-27T18:52:09;2.00;99.90
25170;DHT22;13129;48.012;10.352;2022-11-27T18:54:35;2.00;99.90
25170;DHT22;13129;48.012;10.352;2022-11-27T18:57:02;2.00;99.90
25170;DHT22;13129;48.012;10.352;2022-11-27T18:59:28;2.00;99.90
25170;DHT22;13129;48.012;10.352;2022-11-27T19:01:53;2.00;99.90
25170;DHT22;13129;48.012;10.352;2022-11-27T19:04:19;2.00;99.90
25170;DHT22;13129;48.012;10.352;2022-11-27T19:06:45;2.10;99.90
25170;DHT22;13129;48.012;10.352;2022-11-27T19:09:12;2.00;99.90
25170;DHT22;13129;48.012;10.352;2022-11-27T19:11:39;2.00;99.90
25170;DHT22;13129;48.012;10.352;2022-11-27T19:14:05;1.90;99.90
25170;DHT22;13129;48.012;10.352;2022-11-27T19:16:34;1.80;99.90
25170;DHT22;13129;48.012;10.352;2022-11-27T19:19:01;1.80;99.90
25170;DHT22;13129;48.012;10.352;2022-11-27T19:21:29;1.80;99.90
25170;DHT22;13129;48.012;10.352;2022-11-27T19:23:56;1.80;99.90
25170;DHT22;13129;48.012;10.352;2022-11-27T19:26:25;1.80;99.90
25170;DHT22;13129;48.012;10.352;2022-11-27T19:28:53;1.90;99.90
25170;DHT22;13129;48.012;10.352;2022-11-27T19:31:20;2.00;99.90
25170;DHT22;13129;48.012;10.352;2022-11-27T19:33:56;2.00;99.90
25170;DHT22;13129;48.012;10.352;2022-11-27T19:36:25;2.10;99.90
25170;DHT22;13129;48.012;10.352;2022-11-27T19:39:06;2.10;99.90
25170;DHT22;13129;48.012;10.352;2022-11-27T19:41:33;2.20;99.90
25170;DHT22;13129;48.012;10.352;2022-11-27T19:44:03;2.20;99.90
25170;DHT22;13129;48.012;10.352;2022-11-27T19:46:32;2.10;99.90
25170;DHT22;13129;48.012;10.352;2022-11-27T19:49:03;2.10;99.90
25170;DHT22;13129;48.012;10.352;2022-11-27T19:51:33;2.10;99.90
25170;DHT22;13129;48.012;10.352;2022-11-27T19:54:00;2.10;99.90
25170;DHT22;13129;48.012;10.352;2022-11-27T19:56:29;2.10;99.90
25170;DHT22;13129;48.012;10.352;2022-11-27T19:58:58;2.10;99.90
25170;DHT22;13129;48.012;10.352;2022-11-27T20:01:24;2.10;99.90
25170;DHT22;13129;48.012;10.352;2022-11-27T20:03:50;1.90;99.90
25170;DHT22;13129;48.012;10.352;2022-11-27T20:06:22;1.90;99.90
25170;DHT22;13129;48.012;10.352;2022-11-27T20:08:49;1.80;99.90
25170;DHT22;13129;48.012;10.352;2022-11-27T20:11:18;1.70;99.90
25170;DHT22;13129;48.012;10.352;2022-11-27T20:13:44;1.70;99.90
25170;DHT22;13129;48.012;10.352;2022-11-27T20:16:15;1.70;99.90
25170;DHT22;13129;48.012;10.352;2022-11-27T20:18:42;1.70;99.90
25170;DHT22;13129;48.012;10.352;2022-11-27T20:21:16;1.70;99.90
25170;DHT22;13129;48.012;10.352;2022-11-27T20:23:43;1.60;99.90
25170;DHT22;13129;48.012;10.352;2022-11-27T20:26:12;1.60;99.90
25170;DHT22;13129;48.012;10.352;2022-11-27T20:28:39;1.60;99.90
25170;DHT22;13129;48.012;10.352;2022-11-27T20:31:09;1.60;99.90
25170;DHT22;13129;48.012;10.352;2022-11-27T20:33:37;1.60;99.90
25170;DHT22;13129;48.012;10.352;2022-11-27T20:36:08;1.50;99.90
25170;DHT22;13129;48.012;10.352;2022-11-27T20:38:33;1.60;99.90
25170;DHT22;13129;48.012;10.352;2022-11-27T20:41:01;1.60;99.90
25170;DHT22;13129;48.012;10.352;2022-11-27T20:43:28;1.60;99.90
25170;DHT22;13129;48.012;10.352;2022-11-27T20:45:54;1.60;99.90
25170;DHT22;13129;48.012;10.352;2022-11-27T20:48:20;1.60;99.90
25170;DHT22;13129;48.012;10.352;2022-11-27T20:50:45;1.60;99.90
25170;DHT22;13129;48.012;10.352;2022-11-27T20:53:15;1.70;99.90
25170;DHT22;13129;48.012;10.352;2022-11-27T20:55:40;1.70;99.90
25170;DHT22;13129;48.012;10.352;2022-11-27T20:58:06;1.70;99.90
25170;DHT22;13129;48.012;10.352;2022-11-27T21:00:32;1.70;99.90
25170;DHT22;13129;48.012;10.352;2022-11-27T21:02:57;1.80;99.90
25170;DHT22;13129;48.012;10.352;2022-11-27T21:05:23;1.80;99.90
25170;DHT22;13129;48.012;10.352;2022-11-27T21:07:49;1.70;99.90
25170;DHT22;13129;48.012;10.352;2022-11-27T21:10:16;1.70;99.90
25170;DHT22;13129;48.012;10.352;2022-11-27T21:12:43;1.70;99.90
25170;DHT22;13129;48.012;10.352;2022-11-27T21:15:09;1.70;99.90
25170;DHT22;13129;48.012;10.352;2022-11-27T21:17:35;1.70;99.90